createdAt,value
2023-12-09T05:08:06.629Z,2.15
2023-12-09T05:11:08.215Z,2.15
2023-12-09T05:14:09.775Z,2.42
2023-12-09T05:17:12.476Z,2.25
2023-12-09T05:20:14.117Z,2.28
2023-12-09T05:23:15.654Z,2.03
2023-12-09T05:26:35.496Z,2.10
2023-12-09T05:29:37.061Z,1.97
2023-12-09T05:32:38.817Z,2.28
2023-12-09T05:35:40.356Z,1.85
2023-12-09T05:38:43.004Z,2.03
2023-12-09T05:41:44.591Z,2.00
2023-12-09T05:44:46.052Z,1.92
2023-12-09T05:47:47.634Z,1.70
2023-12-09T05:50:49.257Z,2.00
2023-12-09T05:53:50.866Z,1.90
2023-12-09T05:56:52.413Z,1.60
2023-12-09T05:59:53.950Z,1.52
2023-12-09T06:02:55.739Z,1.70
2023-12-09T06:06:00.353Z,1.83
2023-12-09T06:09:02.006Z,1.52
2023-12-09T06:12:03.987Z,1.88
2023-12-09T06:15:07.258Z,1.60
2023-12-09T06:18:09.507Z,1.65
2023-12-09T06:21:20.316Z,1.80
2023-12-09T06:24:21.856Z,1.80
2023-12-09T06:27:23.541Z,1.63
2023-12-09T06:30:26.239Z,1.60
2023-12-09T06:33:27.912Z,2.00
2023-12-09T06:36:29.666Z,1.63
2023-12-09T06:39:31.254Z,1.85
2023-12-09T06:42:33.650Z,1.85
2023-12-09T06:45:35.228Z,1.80
2023-12-09T06:48:38.673Z,1.55
2023-12-09T06:51:44.811Z,1.65
2023-12-09T06:54:46.359Z,1.85
2023-12-09T06:57:47.925Z,2.50
2023-12-09T07:00:49.793Z,2.10
2023-12-09T07:03:51.838Z,2.20
2023-12-09T07:06:53.596Z,2.08
2023-12-09T07:09:57.166Z,1.60
2023-12-09T07:12:58.793Z,2.15
2023-12-09T07:16:00.374Z,2.00
2023-12-09T07:19:03.303Z,2.00
2023-12-09T07:22:04.962Z,1.75
2023-12-09T07:25:06.971Z,1.73
2023-12-09T07:28:11.292Z,1.70
2023-12-09T07:31:12.900Z,1.55
2023-12-09T07:34:17.765Z,1.50
2023-12-09T07:37:19.536Z,1.73
2023-12-09T07:40:21.049Z,1.55
2023-12-09T07:43:22.663Z,1.50
2023-12-09T07:46:24.211Z,1.50
2023-12-09T07:49:28.484Z,1.40
2023-12-09T07:52:30.349Z,1.63
2023-12-09T07:55:32.046Z,1.60
2023-12-09T07:58:33.665Z,1.42
2023-12-09T08:01:36.416Z,1.50
2023-12-09T08:04:39.382Z,1.35
2023-12-09T08:07:40.906Z,1.27
2023-12-09T08:10:42.452Z,1.42
2023-12-09T08:13:44.179Z,1.30
2023-12-09T08:16:46.407Z,1.30
2023-12-09T08:19:51.130Z,1.50
2023-12-09T08:22:53.223Z,1.48
2023-12-09T08:25:56.141Z,1.40
2023-12-09T08:28:57.660Z,1.42
2023-12-09T08:31:59.247Z,1.50
2023-12-09T08:35:07.509Z,1.20
2023-12-09T08:38:14.198Z,1.42
2023-12-09T08:41:15.710Z,1.20
2023-12-09T08:44:17.238Z,1.10
2023-12-09T08:47:19.183Z,1.05
2023-12-09T08:50:23.553Z,1.40
2023-12-09T08:53:26.995Z,1.20
2023-12-09T08:56:28.531Z,1.20
2023-12-09T08:59:30.181Z,1.13
2023-12-09T09:02:33.930Z,1.40
2023-12-09T09:05:35.969Z,1.00
2023-12-09T09:08:37.512Z,1.13
2023-12-09T09:11:39.085Z,1.25
2023-12-09T09:14:40.627Z,1.10
2023-12-09T09:17:42.412Z,1.27
2023-12-09T09:20:44.053Z,1.42
2023-12-09T09:23:45.586Z,1.38
2023-12-09T09:26:47.091Z,1.42
2023-12-09T09:29:48.629Z,1.45
2023-12-09T09:32:50.629Z,1.40
2023-12-09T09:35:55.044Z,1.40
2023-12-09T09:38:56.696Z,1.38
2023-12-09T09:42:43.034Z,1.65
2023-12-09T09:45:45.323Z,1.60
2023-12-09T09:48:51.815Z,1.30
2023-12-09T09:51:57.286Z,1.17
2023-12-09T09:55:00.714Z,1.58
2023-12-09T09:58:03.264Z,1.20
2023-12-09T10:01:05.935Z,1.20
2023-12-09T10:04:07.731Z,1.17
2023-12-09T10:07:13.079Z,1.33
2023-12-09T10:10:17.642Z,1.10
2023-12-09T10:13:19.290Z,1.33
2023-12-09T10:16:20.969Z,1.10
2023-12-09T10:19:22.805Z,1.13
2023-12-09T10:22:29.232Z,1.10
2023-12-09T10:25:31.266Z,1.23
2023-12-09T10:28:33.963Z,1.10
2023-12-09T10:31:36.824Z,1.40
2023-12-09T10:34:38.986Z,1.25
2023-12-09T10:37:42.187Z,1.30
2023-12-09T10:40:43.756Z,1.10
2023-12-09T10:43:46.182Z,1.00
2023-12-09T10:46:48.987Z,1.38
2023-12-09T10:49:50.601Z,1.10
2023-12-09T10:52:52.188Z,1.10
2023-12-09T10:55:53.725Z,1.10
2023-12-09T10:58:57.650Z,1.20
2023-12-09T11:02:02.050Z,1.02
2023-12-09T11:05:04.079Z,1.08
2023-12-09T11:08:06.198Z,1.02
2023-12-09T11:11:09.086Z,1.17
2023-12-09T11:14:11.295Z,1.02
2023-12-09T11:17:35.650Z,1.10
2023-12-09T11:20:42.207Z,1.17
2023-12-09T11:23:46.969Z,1.20
2023-12-09T11:26:48.983Z,1.10
2023-12-09T11:29:50.576Z,1.20
2023-12-09T11:32:52.402Z,1.00
2023-12-09T11:35:56.969Z,1.20
2023-12-09T11:38:59.491Z,1.00
2023-12-09T11:42:01.856Z,1.27
2023-12-09T11:45:04.764Z,1.10
2023-12-09T11:48:06.880Z,1.38
2023-12-09T11:51:09.070Z,1.17
2023-12-09T11:54:11.527Z,1.10
2023-12-09T11:57:13.467Z,0.93
2023-12-09T12:00:15.384Z,1.30
2023-12-09T12:03:17.120Z,1.05
2023-12-09T12:06:20.425Z,1.05
2023-12-09T12:09:22.044Z,1.17
2023-12-09T12:12:23.881Z,1.30
